PTAO2: Poteau River, Poteau, OK

                                SHEF ID:       PTAO2     Poteau River at Poteau, OK
STATION TYPE:
Regulating: Stage = 20.00, Flow = 7395

PRECIP STAGE RIV-FLOW VOLTAGE BAT-LOAD
in ft cfs volt volt
Ccp-Rev Ccp-Rev Ccp-Rev Ccp-Rev Ccp-Rev
(America/Chicago)
07/17 00:00 0.00 6.54 1627 12.82 12.24
07/17 01:00 0.00 6.37 1568 12.81 12.20
07/17 02:00 0.00 6.23 1520 12.80 12.17
07/17 03:00 0.00 6.14 1490 12.80 12.19
07/17 04:00 0.00 6.05 1460 12.80 12.18
07/17 05:00 0.00 6.00 1443 12.78 12.17
07/17 06:00 0.00 5.94 1423 12.77 12.17
07/17 07:00 0.00 5.91 1413 12.86 12.17
07/17 08:00 0.00 5.90 1409 13.30 12.57
07/17 09:00 0.00 5.88 1403 13.74 12.88
07/17 10:00 0.00 5.86 1396 13.56 12.77
07/17 11:00 0.00 5.85 1393 13.09 12.48
07/17 12:00 0.00 5.83 1386 13.01 12.38
07/17 13:00 0.00 5.83 1386 12.98 12.31
07/17 14:00 0.00 5.82 1383 12.98 12.34
07/17 15:00 0.00 5.81 1379 12.94 12.30
07/17 16:00 0.00 5.81 1379 12.93 12.26
07/17 17:00 0.00 5.80 1376 12.91 12.27
07/17 18:00 0.00 5.80 1376 12.88 12.20
07/17 19:00 0.00 5.79 1373 12.99 12.24
07/17 20:00 0.00 5.79 1373 12.95 12.26
07/17 21:00 0.00 5.80 1376 12.85 12.21
07/17 22:00 0.00 5.80 1376 12.83 12.20
07/17 23:00 0.00 5.79 1373 12.81 12.17
Data processed at Fri 18Jul2025 04:48 GMT

Parsing this webpage?

Checkout our new Data API! CWMSDataAPI (CDA)

Timeseries IDs (TSIDs)

TSIDs used from left to right in the data table
POTE.Precip-Inc.Total.1Hour.1Hour.Ccp-Rev
POTE.Stage.Inst.1Hour.0.Ccp-Rev
POTE.Flow.Inst.1Hour.0.Ccp-Rev
POTE.Volt-Battery.Inst.1Hour.0.Ccp-Rev
POTE.Volt-Battery Load.Inst.1Hour.0.Ccp-Rev

                            

All information presented herein is the property of the government of the United States of America and may be revised or deleted at any time without prior notice. Dissemination of this information without the expressed written consent of the Public Affairs Office, Tulsa District U.S. Army Corps of Engineers is strictly prohibited. These data are gathered electronically and, as presented, have NOT undergone any form of quality control. These data are NOT guaranteed to be valid or correct.